sensor_id;sensor_type;location;lat;lon;timestamp;P1;durP1;ratioP1;P2;durP2;ratioP2
43809;SDS011;29440;48.208;11.162;2022-12-07T00:00:48;13.52;;;6.90;;
43809;SDS011;29440;48.208;11.162;2022-12-07T00:03:14;13.35;;;7.13;;
43809;SDS011;29440;48.208;11.162;2022-12-07T00:05:40;12.23;;;7.20;;
43809;SDS011;29440;48.208;11.162;2022-12-07T00:08:05;13.85;;;6.45;;
43809;SDS011;29440;48.208;11.162;2022-12-07T00:10:33;15.98;;;7.75;;
43809;SDS011;29440;48.208;11.162;2022-12-07T00:12:59;14.38;;;7.50;;
43809;SDS011;29440;48.208;11.162;2022-12-07T00:15:24;12.00;;;6.78;;
43809;SDS011;29440;48.208;11.162;2022-12-07T00:17:50;16.20;;;7.15;;
43809;SDS011;29440;48.208;11.162;2022-12-07T00:20:15;12.77;;;7.10;;
43809;SDS011;29440;48.208;11.162;2022-12-07T00:22:41;11.52;;;6.20;;
43809;SDS011;29440;48.208;11.162;2022-12-07T00:25:07;11.93;;;6.18;;
43809;SDS011;29440;48.208;11.162;2022-12-07T00:27:32;11.27;;;6.50;;
43809;SDS011;29440;48.208;11.162;2022-12-07T00:29:58;12.40;;;6.63;;
43809;SDS011;29440;48.208;11.162;2022-12-07T00:32:24;12.30;;;6.53;;
43809;SDS011;29440;48.208;11.162;2022-12-07T00:34:49;11.63;;;6.65;;
43809;SDS011;29440;48.208;11.162;2022-12-07T00:37:15;11.27;;;6.50;;
43809;SDS011;29440;48.208;11.162;2022-12-07T00:39:41;14.18;;;6.90;;
43809;SDS011;29440;48.208;11.162;2022-12-07T00:42:06;10.35;;;6.22;;
43809;SDS011;29440;48.208;11.162;2022-12-07T00:44:33;14.15;;;6.47;;
43809;SDS011;29440;48.208;11.162;2022-12-07T00:46:58;13.75;;;6.50;;
43809;SDS011;29440;48.208;11.162;2022-12-07T00:49:24;12.13;;;6.55;;
43809;SDS011;29440;48.208;11.162;2022-12-07T00:51:49;13.30;;;6.72;;
43809;SDS011;29440;48.208;11.162;2022-12-07T00:54:15;11.05;;;6.55;;
43809;SDS011;29440;48.208;11.162;2022-12-07T00:56:41;11.32;;;6.15;;
43809;SDS011;29440;48.208;11.162;2022-12-07T00:59:10;11.40;;;6.45;;
43809;SDS011;29440;48.208;11.162;2022-12-07T01:01:37;13.32;;;6.60;;
43809;SDS011;29440;48.208;11.162;2022-12-07T01:04:03;11.95;;;6.40;;
43809;SDS011;29440;48.208;11.162;2022-12-07T01:06:29;12.43;;;6.65;;
43809;SDS011;29440;48.208;11.162;2022-12-07T01:08:55;9.23;;;6.05;;
43809;SDS011;29440;48.208;11.162;2022-12-07T01:11:22;11.68;;;6.43;;
43809;SDS011;29440;48.208;11.162;2022-12-07T01:13:50;12.93;;;6.45;;
43809;SDS011;29440;48.208;11.162;2022-12-07T01:16:17;12.40;;;6.65;;
43809;SDS011;29440;48.208;11.162;2022-12-07T01:18:45;11.63;;;6.43;;
43809;SDS011;29440;48.208;11.162;2022-12-07T01:21:14;13.43;;;7.25;;
43809;SDS011;29440;48.208;11.162;2022-12-07T01:23:42;11.93;;;6.45;;
43809;SDS011;29440;48.208;11.162;2022-12-07T01:26:12;13.35;;;6.43;;
43809;SDS011;29440;48.208;11.162;2022-12-07T01:28:40;17.40;;;7.00;;
43809;SDS011;29440;48.208;11.162;2022-12-07T01:31:07;13.30;;;6.88;;
43809;SDS011;29440;48.208;11.162;2022-12-07T01:33:37;13.55;;;6.78;;
43809;SDS011;29440;48.208;11.162;2022-12-07T01:38:32;12.07;;;6.63;;
43809;SDS011;29440;48.208;11.162;2022-12-07T01:40:59;12.50;;;6.53;;
43809;SDS011;29440;48.208;11.162;2022-12-07T01:43:26;12.57;;;6.80;;
43809;SDS011;29440;48.208;11.162;2022-12-07T01:45:53;13.43;;;6.93;;
43809;SDS011;29440;48.208;11.162;2022-12-07T01:48:33;9.68;;;6.20;;
43809;SDS011;29440;48.208;11.162;2022-12-07T01:51:04;11.77;;;6.22;;
43809;SDS011;29440;48.208;11.162;2022-12-07T01:53:33;13.40;;;6.47;;
43809;SDS011;29440;48.208;11.162;2022-12-07T01:56:03;10.90;;;6.03;;
43809;SDS011;29440;48.208;11.162;2022-12-07T01:58:30;9.65;;;5.75;;
43809;SDS011;29440;48.208;11.162;2022-12-07T02:00:56;10.57;;;6.38;;
43809;SDS011;29440;48.208;11.162;2022-12-07T02:03:27;11.60;;;6.32;;
43809;SDS011;29440;48.208;11.162;2022-12-07T02:05:59;11.77;;;7.13;;
43809;SDS011;29440;48.208;11.162;2022-12-07T02:08:30;11.85;;;6.63;;
43809;SDS011;29440;48.208;11.162;2022-12-07T02:10:56;13.30;;;6.65;;
43809;SDS011;29440;48.208;11.162;2022-12-07T02:13:22;9.30;;;5.45;;
43809;SDS011;29440;48.208;11.162;2022-12-07T02:18:48;12.68;;;6.32;;
43809;SDS011;29440;48.208;11.162;2022-12-07T02:29:25;11.45;;;6.63;;
43809;SDS011;29440;48.208;11.162;2022-12-07T02:32:18;11.55;;;6.38;;
43809;SDS011;29440;48.208;11.162;2022-12-07T02:37:25;12.05;;;6.35;;
43809;SDS011;29440;48.208;11.162;2022-12-07T02:42:40;12.75;;;6.15;;
43809;SDS011;29440;48.208;11.162;2022-12-07T02:45:10;10.50;;;5.60;;
43809;SDS011;29440;48.208;11.162;2022-12-07T02:47:38;10.70;;;5.82;;
43809;SDS011;29440;48.208;11.162;2022-12-07T02:50:06;11.45;;;5.90;;
43809;SDS011;29440;48.208;11.162;2022-12-07T02:52:32;11.15;;;6.15;;
43809;SDS011;29440;48.208;11.162;2022-12-07T02:54:58;12.48;;;6.47;;
43809;SDS011;29440;48.208;11.162;2022-12-07T02:57:34;11.75;;;6.18;;
43809;SDS011;29440;48.208;11.162;2022-12-07T03:00:26;11.85;;;6.13;;
43809;SDS011;29440;48.208;11.162;2022-12-07T03:05:42;11.57;;;6.00;;
43809;SDS011;29440;48.208;11.162;2022-12-07T03:11:20;11.77;;;6.22;;
43809;SDS011;29440;48.208;11.162;2022-12-07T03:14:00;10.57;;;6.28;;
43809;SDS011;29440;48.208;11.162;2022-12-07T03:16:30;11.65;;;6.43;;
43809;SDS011;29440;48.208;11.162;2022-12-07T03:19:02;13.02;;;6.00;;
43809;SDS011;29440;48.208;11.162;2022-12-07T03:21:34;10.45;;;5.90;;
43809;SDS011;29440;48.208;11.162;2022-12-07T03:24:04;10.52;;;5.60;;
43809;SDS011;29440;48.208;11.162;2022-12-07T03:26:36;9.98;;;5.82;;
43809;SDS011;29440;48.208;11.162;2022-12-07T03:29:07;10.85;;;5.72;;
43809;SDS011;29440;48.208;11.162;2022-12-07T03:32:00;11.20;;;5.90;;
43809;SDS011;29440;48.208;11.162;2022-12-07T03:34:33;10.55;;;5.75;;
43809;SDS011;29440;48.208;11.162;2022-12-07T03:37:08;12.95;;;6.32;;
43809;SDS011;29440;48.208;11.162;2022-12-07T03:39:48;11.68;;;6.35;;
43809;SDS011;29440;48.208;11.162;2022-12-07T03:42:18;11.82;;;6.00;;
43809;SDS011;29440;48.208;11.162;2022-12-07T03:44:44;12.68;;;6.65;;
43809;SDS011;29440;48.208;11.162;2022-12-07T03:50:06;12.52;;;6.57;;
43809;SDS011;29440;48.208;11.162;2022-12-07T03:52:47;13.00;;;6.53;;
43809;SDS011;29440;48.208;11.162;2022-12-07T03:55:22;12.30;;;6.95;;
43809;SDS011;29440;48.208;11.162;2022-12-07T03:57:53;10.48;;;6.30;;
43809;SDS011;29440;48.208;11.162;2022-12-07T04:00:23;12.20;;;6.70;;
43809;SDS011;29440;48.208;11.162;2022-12-07T04:02:51;14.98;;;6.85;;
43809;SDS011;29440;48.208;11.162;2022-12-07T04:05:17;13.68;;;6.72;;
43809;SDS011;29440;48.208;11.162;2022-12-07T04:07:43;14.05;;;7.18;;
43809;SDS011;29440;48.208;11.162;2022-12-07T04:10:09;13.18;;;7.18;;
43809;SDS011;29440;48.208;11.162;2022-12-07T04:12:36;12.27;;;7.00;;
43809;SDS011;29440;48.208;11.162;2022-12-07T04:15:01;13.13;;;6.22;;
43809;SDS011;29440;48.208;11.162;2022-12-07T04:17:28;11.63;;;5.97;;
43809;SDS011;29440;48.208;11.162;2022-12-07T04:19:53;13.45;;;6.88;;
43809;SDS011;29440;48.208;11.162;2022-12-07T04:22:19;10.38;;;6.10;;
43809;SDS011;29440;48.208;11.162;2022-12-07T04:24:45;13.25;;;6.70;;
43809;SDS011;29440;48.208;11.162;2022-12-07T04:27:11;13.25;;;6.53;;
43809;SDS011;29440;48.208;11.162;2022-12-07T04:29:37;10.48;;;5.57;;
43809;SDS011;29440;48.208;11.162;2022-12-07T04:32:03;12.43;;;6.82;;
43809;SDS011;29440;48.208;11.162;2022-12-07T04:34:29;10.52;;;5.70;;
43809;SDS011;29440;48.208;11.162;2022-12-07T04:36:55;12.13;;;6.55;;
43809;SDS011;29440;48.208;11.162;2022-12-07T04:39:25;12.05;;;6.65;;
43809;SDS011;29440;48.208;11.162;2022-12-07T04:41:55;11.43;;;6.13;;
43809;SDS011;29440;48.208;11.162;2022-12-07T04:44:22;12.93;;;6.60;;
43809;SDS011;29440;48.208;11.162;2022-12-07T04:46:48;11.38;;;5.97;;
43809;SDS011;29440;48.208;11.162;2022-12-07T04:49:15;14.13;;;6.65;;
43809;SDS011;29440;48.208;11.162;2022-12-07T04:51:41;16.50;;;7.43;;
43809;SDS011;29440;48.208;11.162;2022-12-07T04:54:07;14.95;;;6.55;;
43809;SDS011;29440;48.208;11.162;2022-12-07T04:56:33;13.80;;;6.75;;
43809;SDS011;29440;48.208;11.162;2022-12-07T04:59:00;12.30;;;6.70;;
43809;SDS011;29440;48.208;11.162;2022-12-07T05:01:26;13.38;;;6.88;;
43809;SDS011;29440;48.208;11.162;2022-12-07T05:03:52;12.50;;;6.72;;
43809;SDS011;29440;48.208;11.162;2022-12-07T05:06:18;12.45;;;6.90;;
43809;SDS011;29440;48.208;11.162;2022-12-07T05:08:44;13.57;;;6.90;;
43809;SDS011;29440;48.208;11.162;2022-12-07T05:11:10;13.98;;;7.47;;
43809;SDS011;29440;48.208;11.162;2022-12-07T05:13:59;11.77;;;6.93;;
43809;SDS011;29440;48.208;11.162;2022-12-07T05:16:24;15.23;;;6.70;;
43809;SDS011;29440;48.208;11.162;2022-12-07T05:18:50;14.85;;;7.07;;
43809;SDS011;29440;48.208;11.162;2022-12-07T05:21:16;11.80;;;6.65;;
43809;SDS011;29440;48.208;11.162;2022-12-07T05:23:41;16.02;;;7.10;;
43809;SDS011;29440;48.208;11.162;2022-12-07T05:26:07;13.18;;;7.18;;
43809;SDS011;29440;48.208;11.162;2022-12-07T05:28:33;12.10;;;6.53;;
43809;SDS011;29440;48.208;11.162;2022-12-07T05:30:58;12.40;;;6.22;;
43809;SDS011;29440;48.208;11.162;2022-12-07T05:33:24;13.82;;;7.13;;
43809;SDS011;29440;48.208;11.162;2022-12-07T05:35:50;13.60;;;7.38;;
43809;SDS011;29440;48.208;11.162;2022-12-07T05:38:16;16.00;;;7.15;;
43809;SDS011;29440;48.208;11.162;2022-12-07T05:40:41;16.10;;;7.35;;
43809;SDS011;29440;48.208;11.162;2022-12-07T05:43:07;15.40;;;7.30;;
43809;SDS011;29440;48.208;11.162;2022-12-07T05:45:33;15.13;;;8.50;;
43809;SDS011;29440;48.208;11.162;2022-12-07T05:47:58;15.23;;;8.05;;
43809;SDS011;29440;48.208;11.162;2022-12-07T05:50:24;13.88;;;7.38;;
43809;SDS011;29440;48.208;11.162;2022-12-07T05:52:50;16.23;;;6.97;;
43809;SDS011;29440;48.208;11.162;2022-12-07T05:55:15;14.40;;;8.05;;
43809;SDS011;29440;48.208;11.162;2022-12-07T05:57:41;15.02;;;7.82;;
43809;SDS011;29440;48.208;11.162;2022-12-07T06:00:27;14.55;;;7.72;;
43809;SDS011;29440;48.208;11.162;2022-12-07T06:02:52;17.48;;;8.32;;
43809;SDS011;29440;48.208;11.162;2022-12-07T06:05:18;18.15;;;9.10;;
43809;SDS011;29440;48.208;11.162;2022-12-07T06:07:44;19.52;;;9.32;;
43809;SDS011;29440;48.208;11.162;2022-12-07T06:10:09;18.05;;;8.93;;
43809;SDS011;29440;48.208;11.162;2022-12-07T06:12:35;16.63;;;8.38;;
43809;SDS011;29440;48.208;11.162;2022-12-07T06:15:03;17.45;;;8.95;;
43809;SDS011;29440;48.208;11.162;2022-12-07T06:17:29;15.88;;;8.30;;
43809;SDS011;29440;48.208;11.162;2022-12-07T06:19:54;15.95;;;8.45;;
43809;SDS011;29440;48.208;11.162;2022-12-07T06:22:20;15.50;;;8.32;;
43809;SDS011;29440;48.208;11.162;2022-12-07T06:24:46;17.10;;;8.50;;
43809;SDS011;29440;48.208;11.162;2022-12-07T06:27:11;15.73;;;8.82;;
43809;SDS011;29440;48.208;11.162;2022-12-07T06:29:37;17.30;;;9.13;;
43809;SDS011;29440;48.208;11.162;2022-12-07T06:32:03;17.90;;;9.77;;
43809;SDS011;29440;48.208;11.162;2022-12-07T06:34:29;22.55;;;10.40;;
43809;SDS011;29440;48.208;11.162;2022-12-07T06:36:55;23.35;;;10.30;;
43809;SDS011;29440;48.208;11.162;2022-12-07T06:39:21;18.85;;;10.43;;
43809;SDS011;29440;48.208;11.162;2022-12-07T06:41:49;23.02;;;11.55;;
43809;SDS011;29440;48.208;11.162;2022-12-07T06:44:16;22.55;;;10.90;;
43809;SDS011;29440;48.208;11.162;2022-12-07T06:46:42;22.17;;;11.38;;
43809;SDS011;29440;48.208;11.162;2022-12-07T06:49:08;18.73;;;9.90;;
43809;SDS011;29440;48.208;11.162;2022-12-07T06:51:34;16.70;;;8.65;;
43809;SDS011;29440;48.208;11.162;2022-12-07T06:54:01;19.13;;;9.70;;
43809;SDS011;29440;48.208;11.162;2022-12-07T06:56:28;19.10;;;9.65;;
43809;SDS011;29440;48.208;11.162;2022-12-07T06:58:54;19.90;;;9.25;;
43809;SDS011;29440;48.208;11.162;2022-12-07T07:01:20;15.95;;;8.73;;
43809;SDS011;29440;48.208;11.162;2022-12-07T07:03:46;18.90;;;9.30;;
43809;SDS011;29440;48.208;11.162;2022-12-07T07:06:12;19.95;;;9.45;;
43809;SDS011;29440;48.208;11.162;2022-12-07T07:08:39;22.83;;;10.18;;
43809;SDS011;29440;48.208;11.162;2022-12-07T07:11:05;22.13;;;10.07;;
43809;SDS011;29440;48.208;11.162;2022-12-07T07:13:33;20.75;;;9.32;;
43809;SDS011;29440;48.208;11.162;2022-12-07T07:15:58;21.95;;;9.85;;
43809;SDS011;29440;48.208;11.162;2022-12-07T07:18:24;20.65;;;9.27;;
43809;SDS011;29440;48.208;11.162;2022-12-07T07:20:53;26.13;;;11.40;;
43809;SDS011;29440;48.208;11.162;2022-12-07T07:23:19;25.67;;;10.73;;
43809;SDS011;29440;48.208;11.162;2022-12-07T07:25:47;25.02;;;10.30;;
43809;SDS011;29440;48.208;11.162;2022-12-07T07:28:13;23.23;;;10.52;;
43809;SDS011;29440;48.208;11.162;2022-12-07T07:30:39;21.77;;;10.23;;
43809;SDS011;29440;48.208;11.162;2022-12-07T07:33:05;26.70;;;11.02;;
43809;SDS011;29440;48.208;11.162;2022-12-07T07:35:31;23.17;;;10.85;;
43809;SDS011;29440;48.208;11.162;2022-12-07T07:37:58;24.63;;;11.32;;
43809;SDS011;29440;48.208;11.162;2022-12-07T07:40:24;23.08;;;11.32;;
43809;SDS011;29440;48.208;11.162;2022-12-07T07:42:50;20.02;;;10.38;;
43809;SDS011;29440;48.208;11.162;2022-12-07T07:45:18;21.73;;;10.30;;
43809;SDS011;29440;48.208;11.162;2022-12-07T07:47:47;23.30;;;10.27;;
43809;SDS011;29440;48.208;11.162;2022-12-07T07:50:13;21.75;;;10.07;;
43809;SDS011;29440;48.208;11.162;2022-12-07T07:52:39;20.83;;;9.15;;
43809;SDS011;29440;48.208;11.162;2022-12-07T07:55:05;18.25;;;8.98;;
43809;SDS011;29440;48.208;11.162;2022-12-07T07:57:33;27.23;;;9.82;;
43809;SDS011;29440;48.208;11.162;2022-12-07T08:00:00;21.60;;;10.23;;
43809;SDS011;29440;48.208;11.162;2022-12-07T08:02:26;24.17;;;10.60;;
43809;SDS011;29440;48.208;11.162;2022-12-07T08:04:54;21.98;;;9.73;;
43809;SDS011;29440;48.208;11.162;2022-12-07T08:07:20;24.50;;;9.88;;
43809;SDS011;29440;48.208;11.162;2022-12-07T08:09:46;23.67;;;11.30;;
43809;SDS011;29440;48.208;11.162;2022-12-07T08:12:12;24.80;;;9.98;;
43809;SDS011;29440;48.208;11.162;2022-12-07T08:14:37;22.80;;;10.38;;
43809;SDS011;29440;48.208;11.162;2022-12-07T08:17:03;26.23;;;10.20;;
43809;SDS011;29440;48.208;11.162;2022-12-07T08:19:28;25.83;;;10.82;;
43809;SDS011;29440;48.208;11.162;2022-12-07T08:21:54;26.55;;;11.23;;
43809;SDS011;29440;48.208;11.162;2022-12-07T08:24:21;22.88;;;11.05;;
43809;SDS011;29440;48.208;11.162;2022-12-07T08:26:47;22.45;;;10.98;;
43809;SDS011;29440;48.208;11.162;2022-12-07T08:29:13;24.58;;;11.82;;
43809;SDS011;29440;48.208;11.162;2022-12-07T08:31:39;23.20;;;10.05;;
43809;SDS011;29440;48.208;11.162;2022-12-07T08:34:04;23.77;;;11.18;;
43809;SDS011;29440;48.208;11.162;2022-12-07T08:36:30;26.20;;;11.52;;
43809;SDS011;29440;48.208;11.162;2022-12-07T08:38:55;24.08;;;10.40;;
43809;SDS011;29440;48.208;11.162;2022-12-07T08:41:21;23.52;;;11.10;;
43809;SDS011;29440;48.208;11.162;2022-12-07T08:43:47;25.98;;;11.93;;
43809;SDS011;29440;48.208;11.162;2022-12-07T08:47:13;24.60;;;9.95;;
43809;SDS011;29440;48.208;11.162;2022-12-07T08:49:14;22.77;;;10.52;;
43809;SDS011;29440;48.208;11.162;2022-12-07T08:51:43;20.77;;;9.88;;
43809;SDS011;29440;48.208;11.162;2022-12-07T08:54:11;26.33;;;11.18;;
43809;SDS011;29440;48.208;11.162;2022-12-07T08:56:39;26.08;;;11.82;;
43809;SDS011;29440;48.208;11.162;2022-12-07T08:59:05;20.50;;;9.60;;
43809;SDS011;29440;48.208;11.162;2022-12-07T09:01:32;27.15;;;11.18;;
43809;SDS011;29440;48.208;11.162;2022-12-07T09:03:57;27.15;;;11.52;;
43809;SDS011;29440;48.208;11.162;2022-12-07T09:06:23;23.77;;;11.50;;
43809;SDS011;29440;48.208;11.162;2022-12-07T09:08:50;26.85;;;10.98;;
43809;SDS011;29440;48.208;11.162;2022-12-07T09:11:20;24.45;;;11.50;;
43809;SDS011;29440;48.208;11.162;2022-12-07T09:13:45;32.17;;;12.05;;
43809;SDS011;29440;48.208;11.162;2022-12-07T09:16:11;34.95;;;11.27;;
43809;SDS011;29440;48.208;11.162;2022-12-07T09:18:37;23.05;;;11.93;;
43809;SDS011;29440;48.208;11.162;2022-12-07T09:21:03;20.83;;;9.80;;
43809;SDS011;29440;48.208;11.162;2022-12-07T09:23:30;20.63;;;9.82;;
43809;SDS011;29440;48.208;11.162;2022-12-07T09:25:58;21.85;;;9.55;;
43809;SDS011;29440;48.208;11.162;2022-12-07T09:28:25;24.05;;;10.40;;
43809;SDS011;29440;48.208;11.162;2022-12-07T09:30:51;23.75;;;10.07;;
43809;SDS011;29440;48.208;11.162;2022-12-07T09:33:16;21.83;;;9.63;;
43809;SDS011;29440;48.208;11.162;2022-12-07T09:35:48;21.77;;;9.65;;
43809;SDS011;29440;48.208;11.162;2022-12-07T09:38:15;42.20;;;10.10;;
43809;SDS011;29440;48.208;11.162;2022-12-07T09:40:41;20.30;;;8.95;;
43809;SDS011;29440;48.208;11.162;2022-12-07T09:43:19;18.33;;;9.25;;
43809;SDS011;29440;48.208;11.162;2022-12-07T09:45:47;18.70;;;8.45;;
43809;SDS011;29440;48.208;11.162;2022-12-07T09:48:17;15.27;;;7.90;;
43809;SDS011;29440;48.208;11.162;2022-12-07T09:50:44;26.67;;;8.88;;
43809;SDS011;29440;48.208;11.162;2022-12-07T09:55:49;21.50;;;8.15;;
43809;SDS011;29440;48.208;11.162;2022-12-07T09:58:25;18.45;;;9.50;;
43809;SDS011;29440;48.208;11.162;2022-12-07T10:00:56;21.55;;;8.38;;
43809;SDS011;29440;48.208;11.162;2022-12-07T10:03:26;17.60;;;8.80;;
43809;SDS011;29440;48.208;11.162;2022-12-07T10:05:53;23.05;;;8.90;;
43809;SDS011;29440;48.208;11.162;2022-12-07T10:08:19;21.98;;;8.30;;
43809;SDS011;29440;48.208;11.162;2022-12-07T10:10:50;15.57;;;8.00;;
43809;SDS011;29440;48.208;11.162;2022-12-07T10:13:21;20.63;;;7.85;;
43809;SDS011;29440;48.208;11.162;2022-12-07T10:15:59;16.85;;;8.10;;
43809;SDS011;29440;48.208;11.162;2022-12-07T10:18:35;19.30;;;7.93;;
43809;SDS011;29440;48.208;11.162;2022-12-07T10:21:16;17.13;;;7.68;;
43809;SDS011;29440;48.208;11.162;2022-12-07T10:26:49;16.45;;;5.97;;
43809;SDS011;29440;48.208;11.162;2022-12-07T10:29:28;12.68;;;6.53;;
43809;SDS011;29440;48.208;11.162;2022-12-07T10:32:42;13.60;;;7.00;;
43809;SDS011;29440;48.208;11.162;2022-12-07T10:34:51;15.07;;;6.60;;
43809;SDS011;29440;48.208;11.162;2022-12-07T10:37:39;13.90;;;7.15;;
43809;SDS011;29440;48.208;11.162;2022-12-07T10:40:23;14.18;;;6.53;;
43809;SDS011;29440;48.208;11.162;2022-12-07T10:43:00;11.38;;;5.85;;
43809;SDS011;29440;48.208;11.162;2022-12-07T10:45:42;13.57;;;6.97;;
43809;SDS011;29440;48.208;11.162;2022-12-07T10:54:47;11.07;;;5.25;;
43809;SDS011;29440;48.208;11.162;2022-12-07T10:57:29;9.80;;;5.38;;
43809;SDS011;29440;48.208;11.162;2022-12-07T11:00:18;13.05;;;5.45;;
43809;SDS011;29440;48.208;11.162;2022-12-07T11:05:52;11.10;;;5.38;;
43809;SDS011;29440;48.208;11.162;2022-12-07T11:11:19;9.18;;;5.03;;
43809;SDS011;29440;48.208;11.162;2022-12-07T11:13:53;12.50;;;5.95;;
43809;SDS011;29440;48.208;11.162;2022-12-07T11:23:04;13.32;;;5.90;;
43809;SDS011;29440;48.208;11.162;2022-12-07T11:34:08;12.73;;;6.50;;
43809;SDS011;29440;48.208;11.162;2022-12-07T11:36:44;11.63;;;6.25;;
43809;SDS011;29440;48.208;11.162;2022-12-07T11:41:57;11.50;;;6.03;;
43809;SDS011;29440;48.208;11.162;2022-12-07T11:44:40;11.23;;;6.00;;
43809;SDS011;29440;48.208;11.162;2022-12-07T11:52:45;8.20;;;4.57;;
43809;SDS011;29440;48.208;11.162;2022-12-07T11:55:21;10.75;;;5.40;;
43809;SDS011;29440;48.208;11.162;2022-12-07T11:58:04;12.50;;;5.20;;
43809;SDS011;29440;48.208;11.162;2022-12-07T12:00:40;8.70;;;4.65;;
43809;SDS011;29440;48.208;11.162;2022-12-07T12:03:11;11.27;;;4.97;;
43809;SDS011;29440;48.208;11.162;2022-12-07T12:05:40;10.48;;;4.68;;
43809;SDS011;29440;48.208;11.162;2022-12-07T12:08:16;9.98;;;5.63;;
43809;SDS011;29440;48.208;11.162;2022-12-07T12:16:47;10.63;;;4.93;;
43809;SDS011;29440;48.208;11.162;2022-12-07T12:22:15;8.48;;;4.93;;
43809;SDS011;29440;48.208;11.162;2022-12-07T12:24:45;10.68;;;5.68;;
43809;SDS011;29440;48.208;11.162;2022-12-07T12:27:24;11.20;;;5.60;;
43809;SDS011;29440;48.208;11.162;2022-12-07T12:29:59;10.27;;;6.15;;
43809;SDS011;29440;48.208;11.162;2022-12-07T12:38:01;10.20;;;5.43;;
43809;SDS011;29440;48.208;11.162;2022-12-07T12:40:50;8.52;;;4.55;;
43809;SDS011;29440;48.208;11.162;2022-12-07T12:51:43;8.95;;;4.70;;
43809;SDS011;29440;48.208;11.162;2022-12-07T12:54:15;9.07;;;5.00;;
43809;SDS011;29440;48.208;11.162;2022-12-07T12:59:32;12.45;;;6.03;;
43809;SDS011;29440;48.208;11.162;2022-12-07T13:13:00;13.27;;;6.60;;
43809;SDS011;29440;48.208;11.162;2022-12-07T13:20:59;11.90;;;5.80;;
43809;SDS011;29440;48.208;11.162;2022-12-07T13:26:22;9.27;;;5.10;;
43809;SDS011;29440;48.208;11.162;2022-12-07T13:31:34;16.13;;;8.32;;
43809;SDS011;29440;48.208;11.162;2022-12-07T13:34:03;11.95;;;6.75;;
43809;SDS011;29440;48.208;11.162;2022-12-07T13:36:36;11.40;;;4.95;;
43809;SDS011;29440;48.208;11.162;2022-12-07T13:39:25;11.30;;;5.53;;
43809;SDS011;29440;48.208;11.162;2022-12-07T13:41:57;11.10;;;5.60;;
43809;SDS011;29440;48.208;11.162;2022-12-07T13:44:27;10.05;;;5.43;;
43809;SDS011;29440;48.208;11.162;2022-12-07T13:47:06;10.60;;;4.80;;
43809;SDS011;29440;48.208;11.162;2022-12-07T13:49:38;7.93;;;4.95;;
43809;SDS011;29440;48.208;11.162;2022-12-07T13:55:01;10.80;;;4.80;;
43809;SDS011;29440;48.208;11.162;2022-12-07T13:57:30;9.95;;;5.35;;
43809;SDS011;29440;48.208;11.162;2022-12-07T14:00:06;10.35;;;5.22;;
43809;SDS011;29440;48.208;11.162;2022-12-07T14:02:54;11.30;;;5.07;;
43809;SDS011;29440;48.208;11.162;2022-12-07T14:05:25;9.80;;;5.25;;
43809;SDS011;29440;48.208;11.162;2022-12-07T14:10:23;11.48;;;5.25;;
43809;SDS011;29440;48.208;11.162;2022-12-07T14:12:53;13.75;;;5.75;;
43809;SDS011;29440;48.208;11.162;2022-12-07T14:15:20;12.43;;;5.82;;
43809;SDS011;29440;48.208;11.162;2022-12-07T14:17:52;7.88;;;4.18;;
43809;SDS011;29440;48.208;11.162;2022-12-07T14:22:58;8.90;;;4.60;;
43809;SDS011;29440;48.208;11.162;2022-12-07T14:25:27;9.60;;;4.53;;
43809;SDS011;29440;48.208;11.162;2022-12-07T14:27:57;10.48;;;5.00;;
43809;SDS011;29440;48.208;11.162;2022-12-07T14:30:26;10.15;;;5.15;;
43809;SDS011;29440;48.208;11.162;2022-12-07T14:32:54;9.20;;;4.97;;
43809;SDS011;29440;48.208;11.162;2022-12-07T14:35:30;9.85;;;5.22;;
43809;SDS011;29440;48.208;11.162;2022-12-07T14:37:56;10.63;;;4.72;;
43809;SDS011;29440;48.208;11.162;2022-12-07T14:40:23;11.40;;;5.55;;
43809;SDS011;29440;48.208;11.162;2022-12-07T14:43:00;9.82;;;4.47;;
43809;SDS011;29440;48.208;11.162;2022-12-07T14:45:28;9.98;;;4.40;;
43809;SDS011;29440;48.208;11.162;2022-12-07T14:47:54;11.43;;;4.65;;
43809;SDS011;29440;48.208;11.162;2022-12-07T14:50:20;8.20;;;4.60;;
43809;SDS011;29440;48.208;11.162;2022-12-07T14:52:47;9.88;;;4.93;;
43809;SDS011;29440;48.208;11.162;2022-12-07T14:55:20;8.57;;;4.40;;
43809;SDS011;29440;48.208;11.162;2022-12-07T14:57:49;9.85;;;5.10;;
43809;SDS011;29440;48.208;11.162;2022-12-07T15:00:15;10.23;;;5.20;;
43809;SDS011;29440;48.208;11.162;2022-12-07T15:02:43;7.13;;;4.10;;
43809;SDS011;29440;48.208;11.162;2022-12-07T15:05:09;11.70;;;5.18;;
43809;SDS011;29440;48.208;11.162;2022-12-07T15:07:35;23.40;;;10.57;;
43809;SDS011;29440;48.208;11.162;2022-12-07T15:10:01;32.00;;;16.20;;
43809;SDS011;29440;48.208;11.162;2022-12-07T15:12:26;25.77;;;11.65;;
43809;SDS011;29440;48.208;11.162;2022-12-07T15:14:52;22.17;;;10.93;;
43809;SDS011;29440;48.208;11.162;2022-12-07T15:17:18;12.02;;;7.03;;
43809;SDS011;29440;48.208;11.162;2022-12-07T15:19:43;14.68;;;5.63;;
43809;SDS011;29440;48.208;11.162;2022-12-07T15:22:09;11.13;;;5.82;;
43809;SDS011;29440;48.208;11.162;2022-12-07T15:24:35;10.80;;;4.63;;
43809;SDS011;29440;48.208;11.162;2022-12-07T15:27:01;10.10;;;4.97;;
43809;SDS011;29440;48.208;11.162;2022-12-07T15:29:27;13.32;;;5.45;;
43809;SDS011;29440;48.208;11.162;2022-12-07T15:31:52;12.20;;;5.30;;
43809;SDS011;29440;48.208;11.162;2022-12-07T15:34:18;11.10;;;5.13;;
43809;SDS011;29440;48.208;11.162;2022-12-07T15:36:44;11.00;;;5.40;;
43809;SDS011;29440;48.208;11.162;2022-12-07T15:39:10;10.48;;;4.82;;
43809;SDS011;29440;48.208;11.162;2022-12-07T15:41:36;12.23;;;6.28;;
43809;SDS011;29440;48.208;11.162;2022-12-07T15:44:02;13.45;;;6.80;;
43809;SDS011;29440;48.208;11.162;2022-12-07T15:46:54;14.38;;;7.50;;
43809;SDS011;29440;48.208;11.162;2022-12-07T15:49:19;14.55;;;7.32;;
43809;SDS011;29440;48.208;11.162;2022-12-07T15:51:45;16.00;;;7.00;;
43809;SDS011;29440;48.208;11.162;2022-12-07T15:54:21;18.25;;;9.07;;
43809;SDS011;29440;48.208;11.162;2022-12-07T15:56:49;14.35;;;7.32;;
43809;SDS011;29440;48.208;11.162;2022-12-07T15:59:14;14.82;;;7.20;;
43809;SDS011;29440;48.208;11.162;2022-12-07T16:01:41;15.95;;;7.20;;
43809;SDS011;29440;48.208;11.162;2022-12-07T16:04:07;13.50;;;6.18;;
43809;SDS011;29440;48.208;11.162;2022-12-07T16:06:32;14.50;;;7.00;;
43809;SDS011;29440;48.208;11.162;2022-12-07T16:11:40;14.40;;;6.40;;
43809;SDS011;29440;48.208;11.162;2022-12-07T16:14:06;16.13;;;6.93;;
43809;SDS011;29440;48.208;11.162;2022-12-07T16:16:32;14.15;;;5.85;;
43809;SDS011;29440;48.208;11.162;2022-12-07T16:18:57;14.02;;;6.00;;
43809;SDS011;29440;48.208;11.162;2022-12-07T16:21:23;14.68;;;7.03;;
43809;SDS011;29440;48.208;11.162;2022-12-07T16:23:49;16.42;;;8.20;;
43809;SDS011;29440;48.208;11.162;2022-12-07T16:26:16;19.70;;;9.32;;
43809;SDS011;29440;48.208;11.162;2022-12-07T16:28:43;19.00;;;8.85;;
43809;SDS011;29440;48.208;11.162;2022-12-07T16:31:10;20.70;;;10.48;;
43809;SDS011;29440;48.208;11.162;2022-12-07T16:33:40;23.77;;;11.73;;
43809;SDS011;29440;48.208;11.162;2022-12-07T16:36:08;22.77;;;11.50;;
43809;SDS011;29440;48.208;11.162;2022-12-07T16:38:35;22.10;;;11.10;;